sensor_id;sensor_type;location;lat;lon;timestamp;temperature;humidity
73665;DHT22;61964;52.052;4.474;2023-07-31T00:01:31;18.54;83.71
73665;DHT22;61964;52.052;4.474;2023-07-31T00:03:57;18.51;83.72
73665;DHT22;61964;52.052;4.474;2023-07-31T00:06:23;18.46;84.10
73665;DHT22;61964;52.052;4.474;2023-07-31T00:08:49;18.49;83.91
73665;DHT22;61964;52.052;4.474;2023-07-31T00:11:14;18.50;83.88
73665;DHT22;61964;52.052;4.474;2023-07-31T00:13:40;18.49;83.53
73665;DHT22;61964;52.052;4.474;2023-07-31T00:16:06;18.46;83.89
73665;DHT22;61964;52.052;4.474;2023-07-31T00:18:31;18.44;83.94
73665;DHT22;61964;52.052;4.474;2023-07-31T00:20:57;18.40;83.75
73665;DHT22;61964;52.052;4.474;2023-07-31T00:23:23;18.37;83.87
73665;DHT22;61964;52.052;4.474;2023-07-31T00:25:49;18.34;84.09
73665;DHT22;61964;52.052;4.474;2023-07-31T00:28:14;18.34;84.02
73665;DHT22;61964;52.052;4.474;2023-07-31T00:30:40;18.34;83.78
73665;DHT22;61964;52.052;4.474;2023-07-31T00:33:06;18.34;84.01
73665;DHT22;61964;52.052;4.474;2023-07-31T00:35:31;18.39;83.94
73665;DHT22;61964;52.052;4.474;2023-07-31T00:37:58;18.37;83.84
73665;DHT22;61964;52.052;4.474;2023-07-31T00:40:24;18.40;83.80
73665;DHT22;61964;52.052;4.474;2023-07-31T00:42:49;18.43;83.54
73665;DHT22;61964;52.052;4.474;2023-07-31T00:45:15;18.37;83.48
73665;DHT22;61964;52.052;4.474;2023-07-31T00:47:41;18.34;83.69
73665;DHT22;61964;52.052;4.474;2023-07-31T00:50:07;18.36;83.64
73665;DHT22;61964;52.052;4.474;2023-07-31T00:52:35;18.39;83.71
73665;DHT22;61964;52.052;4.474;2023-07-31T00:55:03;18.34;83.94
73665;DHT22;61964;52.052;4.474;2023-07-31T00:57:31;18.39;83.82
73665;DHT22;61964;52.052;4.474;2023-07-31T00:59:57;18.42;83.81
73665;DHT22;61964;52.052;4.474;2023-07-31T01:02:23;18.43;83.35
73665;DHT22;61964;52.052;4.474;2023-07-31T01:04:49;18.36;83.32
73665;DHT22;61964;52.052;4.474;2023-07-31T01:07:31;18.34;83.43
73665;DHT22;61964;52.052;4.474;2023-07-31T01:10:27;18.28;83.50
73665;DHT22;61964;52.052;4.474;2023-07-31T01:12:56;18.28;83.59
73665;DHT22;61964;52.052;4.474;2023-07-31T01:15:23;18.29;83.51
73665;DHT22;61964;52.052;4.474;2023-07-31T01:17:49;18.28;83.42
73665;DHT22;61964;52.052;4.474;2023-07-31T01:20:21;18.30;83.40
73665;DHT22;61964;52.052;4.474;2023-07-31T01:26:25;18.32;83.14
73665;DHT22;61964;52.052;4.474;2023-07-31T01:29:03;18.29;82.84
73665;DHT22;61964;52.052;4.474;2023-07-31T01:31:32;18.32;83.21
73665;DHT22;61964;52.052;4.474;2023-07-31T01:34:01;18.33;83.09
73665;DHT22;61964;52.052;4.474;2023-07-31T01:36:28;18.34;82.61
73665;DHT22;61964;52.052;4.474;2023-07-31T01:38:59;18.30;83.21
73665;DHT22;61964;52.052;4.474;2023-07-31T01:41:26;18.33;82.97
73665;DHT22;61964;52.052;4.474;2023-07-31T01:43:51;18.33;82.47
73665;DHT22;61964;52.052;4.474;2023-07-31T01:46:17;18.30;82.50
73665;DHT22;61964;52.052;4.474;2023-07-31T01:48:43;18.32;82.76
73665;DHT22;61964;52.052;4.474;2023-07-31T01:51:09;18.30;82.45
73665;DHT22;61964;52.052;4.474;2023-07-31T01:53:34;18.26;82.20
73665;DHT22;61964;52.052;4.474;2023-07-31T01:56:00;18.25;82.85
73665;DHT22;61964;52.052;4.474;2023-07-31T01:58:26;18.26;82.34
73665;DHT22;61964;52.052;4.474;2023-07-31T02:00:52;18.23;82.57
73665;DHT22;61964;52.052;4.474;2023-07-31T02:03:17;18.23;82.60
73665;DHT22;61964;52.052;4.474;2023-07-31T02:05:48;18.26;82.78
73665;DHT22;61964;52.052;4.474;2023-07-31T02:08:14;18.26;82.48
73665;DHT22;61964;52.052;4.474;2023-07-31T02:10:40;18.28;82.70
73665;DHT22;61964;52.052;4.474;2023-07-31T02:13:06;18.33;82.44
73665;DHT22;61964;52.052;4.474;2023-07-31T02:15:32;18.34;82.58
73665;DHT22;61964;52.052;4.474;2023-07-31T02:17:58;18.36;82.26
73665;DHT22;61964;52.052;4.474;2023-07-31T02:20:24;18.34;82.19
73665;DHT22;61964;52.052;4.474;2023-07-31T02:22:49;18.36;82.24
73665;DHT22;61964;52.052;4.474;2023-07-31T02:25:15;18.39;82.14
73665;DHT22;61964;52.052;4.474;2023-07-31T02:27:44;18.36;82.15
73665;DHT22;61964;52.052;4.474;2023-07-31T02:30:10;18.40;82.03
73665;DHT22;61964;52.052;4.474;2023-07-31T02:32:36;18.36;81.79
73665;DHT22;61964;52.052;4.474;2023-07-31T02:35:02;18.34;81.95
73665;DHT22;61964;52.052;4.474;2023-07-31T02:37:27;18.36;81.64
73665;DHT22;61964;52.052;4.474;2023-07-31T02:39:54;18.33;81.53
73665;DHT22;61964;52.052;4.474;2023-07-31T02:42:20;18.36;81.87
73665;DHT22;61964;52.052;4.474;2023-07-31T02:44:46;18.42;80.67
73665;DHT22;61964;52.052;4.474;2023-07-31T02:47:12;18.34;81.29
73665;DHT22;61964;52.052;4.474;2023-07-31T02:49:37;18.36;80.88
73665;DHT22;61964;52.052;4.474;2023-07-31T02:52:03;18.34;80.85
73665;DHT22;61964;52.052;4.474;2023-07-31T02:54:29;18.28;80.97
73665;DHT22;61964;52.052;4.474;2023-07-31T02:56:55;18.25;80.90
73665;DHT22;61964;52.052;4.474;2023-07-31T02:59:21;18.28;80.78
73665;DHT22;61964;52.052;4.474;2023-07-31T03:01:46;18.26;80.84
73665;DHT22;61964;52.052;4.474;2023-07-31T03:04:12;18.25;80.66
73665;DHT22;61964;52.052;4.474;2023-07-31T03:06:38;18.28;81.03
73665;DHT22;61964;52.052;4.474;2023-07-31T03:09:03;18.23;81.26
73665;DHT22;61964;52.052;4.474;2023-07-31T03:11:29;18.29;81.43
73665;DHT22;61964;52.052;4.474;2023-07-31T03:13:55;18.30;81.26
73665;DHT22;61964;52.052;4.474;2023-07-31T03:16:21;18.36;80.76
73665;DHT22;61964;52.052;4.474;2023-07-31T03:18:46;18.39;81.14
73665;DHT22;61964;52.052;4.474;2023-07-31T03:21:12;18.34;80.94
73665;DHT22;61964;52.052;4.474;2023-07-31T03:23:38;18.32;81.32
73665;DHT22;61964;52.052;4.474;2023-07-31T03:26:07;18.36;81.17
73665;DHT22;61964;52.052;4.474;2023-07-31T03:28:33;18.34;81.45
73665;DHT22;61964;52.052;4.474;2023-07-31T03:30:59;18.33;81.61
73665;DHT22;61964;52.052;4.474;2023-07-31T03:33:25;18.34;81.26
73665;DHT22;61964;52.052;4.474;2023-07-31T03:35:53;18.33;81.26
73665;DHT22;61964;52.052;4.474;2023-07-31T03:38:19;18.34;81.39
73665;DHT22;61964;52.052;4.474;2023-07-31T03:40:45;18.36;80.97
73665;DHT22;61964;52.052;4.474;2023-07-31T03:43:12;18.30;81.38
73665;DHT22;61964;52.052;4.474;2023-07-31T03:45:37;18.29;81.55
73665;DHT22;61964;52.052;4.474;2023-07-31T03:48:04;18.32;81.70
73665;DHT22;61964;52.052;4.474;2023-07-31T03:50:30;18.37;81.50
73665;DHT22;61964;52.052;4.474;2023-07-31T03:52:56;18.29;81.48
73665;DHT22;61964;52.052;4.474;2023-07-31T03:55:21;18.30;81.60
73665;DHT22;61964;52.052;4.474;2023-07-31T03:57:47;18.26;82.02
73665;DHT22;61964;52.052;4.474;2023-07-31T04:00:13;18.23;82.15
73665;DHT22;61964;52.052;4.474;2023-07-31T04:02:39;18.23;82.36
73665;DHT22;61964;52.052;4.474;2023-07-31T04:05:05;18.28;82.18
73665;DHT22;61964;52.052;4.474;2023-07-31T04:07:30;18.26;82.26
73665;DHT22;61964;52.052;4.474;2023-07-31T04:09:57;18.30;82.44
73665;DHT22;61964;52.052;4.474;2023-07-31T04:12:23;18.36;82.27
73665;DHT22;61964;52.052;4.474;2023-07-31T04:14:49;18.34;82.31
73665;DHT22;61964;52.052;4.474;2023-07-31T04:17:15;18.34;82.39
73665;DHT22;61964;52.052;4.474;2023-07-31T04:19:40;18.37;82.66
73665;DHT22;61964;52.052;4.474;2023-07-31T04:22:06;18.36;82.44
73665;DHT22;61964;52.052;4.474;2023-07-31T04:24:32;18.32;82.85
73665;DHT22;61964;52.052;4.474;2023-07-31T04:26:58;18.29;82.64
73665;DHT22;61964;52.052;4.474;2023-07-31T04:29:23;18.25;82.96
73665;DHT22;61964;52.052;4.474;2023-07-31T04:31:49;18.16;83.38
73665;DHT22;61964;52.052;4.474;2023-07-31T04:34:15;18.19;83.56
73665;DHT22;61964;52.052;4.474;2023-07-31T04:36:41;18.19;83.51
73665;DHT22;61964;52.052;4.474;2023-07-31T04:39:06;18.22;83.77
73665;DHT22;61964;52.052;4.474;2023-07-31T04:41:32;18.20;83.58
73665;DHT22;61964;52.052;4.474;2023-07-31T04:43:58;18.17;83.62
73665;DHT22;61964;52.052;4.474;2023-07-31T04:46:23;18.25;83.29
73665;DHT22;61964;52.052;4.474;2023-07-31T04:48:49;18.17;83.22
73665;DHT22;61964;52.052;4.474;2023-07-31T04:51:15;18.10;83.26
73665;DHT22;61964;52.052;4.474;2023-07-31T04:53:41;18.06;83.44
73665;DHT22;61964;52.052;4.474;2023-07-31T04:56:06;18.05;83.54
73665;DHT22;61964;52.052;4.474;2023-07-31T04:58:32;18.02;83.38
73665;DHT22;61964;52.052;4.474;2023-07-31T05:00:58;17.95;83.35
73665;DHT22;61964;52.052;4.474;2023-07-31T05:03:23;17.89;83.63
73665;DHT22;61964;52.052;4.474;2023-07-31T05:05:50;17.91;83.65
73665;DHT22;61964;52.052;4.474;2023-07-31T05:08:16;17.89;83.56
73665;DHT22;61964;52.052;4.474;2023-07-31T05:10:43;17.89;83.54
73665;DHT22;61964;52.052;4.474;2023-07-31T05:13:09;17.91;83.56
73665;DHT22;61964;52.052;4.474;2023-07-31T05:15:35;17.85;83.43
73665;DHT22;61964;52.052;4.474;2023-07-31T05:18:00;17.83;83.71
73665;DHT22;61964;52.052;4.474;2023-07-31T05:20:26;17.77;84.47
73665;DHT22;61964;52.052;4.474;2023-07-31T05:22:53;17.77;84.89
73665;DHT22;61964;52.052;4.474;2023-07-31T05:25:19;17.78;85.02
73665;DHT22;61964;52.052;4.474;2023-07-31T05:27:44;17.83;84.08
73665;DHT22;61964;52.052;4.474;2023-07-31T05:30:10;17.86;83.87
73665;DHT22;61964;52.052;4.474;2023-07-31T05:32:36;17.89;83.70
73665;DHT22;61964;52.052;4.474;2023-07-31T05:35:02;17.89;83.80
73665;DHT22;61964;52.052;4.474;2023-07-31T05:37:27;17.83;83.79
73665;DHT22;61964;52.052;4.474;2023-07-31T05:39:53;17.79;84.12
73665;DHT22;61964;52.052;4.474;2023-07-31T05:42:19;17.85;84.12
73665;DHT22;61964;52.052;4.474;2023-07-31T05:44:44;17.82;83.98
73665;DHT22;61964;52.052;4.474;2023-07-31T05:47:10;17.81;84.34
73665;DHT22;61964;52.052;4.474;2023-07-31T05:49:36;17.91;84.26
73665;DHT22;61964;52.052;4.474;2023-07-31T05:52:02;17.91;84.12
73665;DHT22;61964;52.052;4.474;2023-07-31T05:54:27;17.93;84.20
73665;DHT22;61964;52.052;4.474;2023-07-31T05:56:53;17.89;84.11
73665;DHT22;61964;52.052;4.474;2023-07-31T05:59:19;17.91;84.37
73665;DHT22;61964;52.052;4.474;2023-07-31T06:01:44;17.95;84.23
73665;DHT22;61964;52.052;4.474;2023-07-31T06:04:10;17.95;84.35
73665;DHT22;61964;52.052;4.474;2023-07-31T06:06:36;17.96;84.38
73665;DHT22;61964;52.052;4.474;2023-07-31T06:09:02;17.93;84.45
73665;DHT22;61964;52.052;4.474;2023-07-31T06:11:29;17.95;84.54
73665;DHT22;61964;52.052;4.474;2023-07-31T06:13:55;17.95;84.70
73665;DHT22;61964;52.052;4.474;2023-07-31T06:16:20;17.99;84.51
73665;DHT22;61964;52.052;4.474;2023-07-31T06:18:47;18.06;84.63
73665;DHT22;61964;52.052;4.474;2023-07-31T06:21:13;18.10;84.65
73665;DHT22;61964;52.052;4.474;2023-07-31T06:23:38;18.14;84.65
73665;DHT22;61964;52.052;4.474;2023-07-31T06:26:04;18.23;84.51
73665;DHT22;61964;52.052;4.474;2023-07-31T06:28:31;18.23;84.44
73665;DHT22;61964;52.052;4.474;2023-07-31T06:31:00;18.29;84.44
73665;DHT22;61964;52.052;4.474;2023-07-31T06:33:27;18.29;84.35
73665;DHT22;61964;52.052;4.474;2023-07-31T06:35:53;18.30;84.58
73665;DHT22;61964;52.052;4.474;2023-07-31T06:38:25;18.36;84.56
73665;DHT22;61964;52.052;4.474;2023-07-31T06:40:51;18.32;84.74
73665;DHT22;61964;52.052;4.474;2023-07-31T06:43:16;18.33;84.66
73665;DHT22;61964;52.052;4.474;2023-07-31T06:45:42;18.34;84.65
73665;DHT22;61964;52.052;4.474;2023-07-31T06:48:08;18.33;84.50
73665;DHT22;61964;52.052;4.474;2023-07-31T06:50:33;18.33;84.66
73665;DHT22;61964;52.052;4.474;2023-07-31T06:52:59;18.33;84.49
73665;DHT22;61964;52.052;4.474;2023-07-31T06:55:26;18.34;84.48
73665;DHT22;61964;52.052;4.474;2023-07-31T06:57:54;18.37;84.53
73665;DHT22;61964;52.052;4.474;2023-07-31T07:00:22;18.36;84.79
73665;DHT22;61964;52.052;4.474;2023-07-31T07:02:49;18.37;84.97
73665;DHT22;61964;52.052;4.474;2023-07-31T07:05:16;18.42;85.22
73665;DHT22;61964;52.052;4.474;2023-07-31T07:07:42;18.46;84.86
73665;DHT22;61964;52.052;4.474;2023-07-31T07:10:09;18.44;84.85
73665;DHT22;61964;52.052;4.474;2023-07-31T07:12:35;18.46;85.15
73665;DHT22;61964;52.052;4.474;2023-07-31T07:15:01;18.50;85.08
73665;DHT22;61964;52.052;4.474;2023-07-31T07:17:29;18.51;85.06
73665;DHT22;61964;52.052;4.474;2023-07-31T07:19:58;18.49;84.84
73665;DHT22;61964;52.052;4.474;2023-07-31T07:22:25;18.47;85.29
73665;DHT22;61964;52.052;4.474;2023-07-31T07:24:51;18.51;84.80
73665;DHT22;61964;52.052;4.474;2023-07-31T07:27:17;18.51;85.01
73665;DHT22;61964;52.052;4.474;2023-07-31T07:29:43;18.56;84.70
73665;DHT22;61964;52.052;4.474;2023-07-31T07:32:08;18.53;84.68
73665;DHT22;61964;52.052;4.474;2023-07-31T07:34:34;18.57;84.88
73665;DHT22;61964;52.052;4.474;2023-07-31T07:37:00;18.63;85.15
73665;DHT22;61964;52.052;4.474;2023-07-31T07:39:25;18.70;84.84
73665;DHT22;61964;52.052;4.474;2023-07-31T07:41:51;18.77;84.52
73665;DHT22;61964;52.052;4.474;2023-07-31T07:44:18;18.80;84.81
73665;DHT22;61964;52.052;4.474;2023-07-31T07:46:44;18.74;84.46
73665;DHT22;61964;52.052;4.474;2023-07-31T07:49:10;18.78;84.79
73665;DHT22;61964;52.052;4.474;2023-07-31T07:51:35;18.81;84.90
73665;DHT22;61964;52.052;4.474;2023-07-31T07:54:02;18.85;84.54
73665;DHT22;61964;52.052;4.474;2023-07-31T07:56:28;18.85;84.87
73665;DHT22;61964;52.052;4.474;2023-07-31T07:58:54;18.85;84.91
73665;DHT22;61964;52.052;4.474;2023-07-31T08:01:20;18.92;85.09
73665;DHT22;61964;52.052;4.474;2023-07-31T08:03:47;18.98;84.72
73665;DHT22;61964;52.052;4.474;2023-07-31T08:06:14;19.00;84.71
73665;DHT22;61964;52.052;4.474;2023-07-31T08:08:40;18.97;84.90
73665;DHT22;61964;52.052;4.474;2023-07-31T08:11:06;18.98;84.83
73665;DHT22;61964;52.052;4.474;2023-07-31T08:13:32;19.04;84.89
73665;DHT22;61964;52.052;4.474;2023-07-31T08:15:57;19.10;84.84
73665;DHT22;61964;52.052;4.474;2023-07-31T08:18:23;19.04;84.80
73665;DHT22;61964;52.052;4.474;2023-07-31T08:20:49;19.05;84.83
73665;DHT22;61964;52.052;4.474;2023-07-31T08:23:15;19.05;84.91
73665;DHT22;61964;52.052;4.474;2023-07-31T08:25:40;19.15;84.63
73665;DHT22;61964;52.052;4.474;2023-07-31T08:28:06;19.16;84.11
73665;DHT22;61964;52.052;4.474;2023-07-31T08:30:32;19.12;84.53
73665;DHT22;61964;52.052;4.474;2023-07-31T08:33:02;19.14;84.60
73665;DHT22;61964;52.052;4.474;2023-07-31T08:35:28;19.16;84.71
73665;DHT22;61964;52.052;4.474;2023-07-31T08:37:54;19.12;84.86
73665;DHT22;61964;52.052;4.474;2023-07-31T08:40:20;19.19;84.55
73665;DHT22;61964;52.052;4.474;2023-07-31T08:42:54;19.18;84.81
73665;DHT22;61964;52.052;4.474;2023-07-31T08:45:22;19.26;84.66
73665;DHT22;61964;52.052;4.474;2023-07-31T08:47:50;19.22;84.58
73665;DHT22;61964;52.052;4.474;2023-07-31T08:50:18;19.22;84.91
73665;DHT22;61964;52.052;4.474;2023-07-31T08:52:46;19.21;84.82
73665;DHT22;61964;52.052;4.474;2023-07-31T08:55:13;19.26;84.68
73665;DHT22;61964;52.052;4.474;2023-07-31T08:57:39;19.31;84.46
73665;DHT22;61964;52.052;4.474;2023-07-31T09:00:07;19.32;84.43
73665;DHT22;61964;52.052;4.474;2023-07-31T09:03:01;19.39;84.18
73665;DHT22;61964;52.052;4.474;2023-07-31T09:05:30;19.46;84.04
73665;DHT22;61964;52.052;4.474;2023-07-31T09:07:57;19.42;83.84
73665;DHT22;61964;52.052;4.474;2023-07-31T09:10:24;19.39;83.48
73665;DHT22;61964;52.052;4.474;2023-07-31T09:12:53;19.41;83.97
73665;DHT22;61964;52.052;4.474;2023-07-31T09:15:19;19.38;83.77
73665;DHT22;61964;52.052;4.474;2023-07-31T09:17:45;19.41;84.07
73665;DHT22;61964;52.052;4.474;2023-07-31T09:20:21;19.42;83.80
73665;DHT22;61964;52.052;4.474;2023-07-31T09:22:48;19.48;84.25
73665;DHT22;61964;52.052;4.474;2023-07-31T09:25:34;19.52;83.81
73665;DHT22;61964;52.052;4.474;2023-07-31T09:28:03;19.58;83.91
73665;DHT22;61964;52.052;4.474;2023-07-31T09:30:29;19.66;83.62
73665;DHT22;61964;52.052;4.474;2023-07-31T09:33:04;19.63;83.15
73665;DHT22;61964;52.052;4.474;2023-07-31T09:35:35;19.58;83.47
73665;DHT22;61964;52.052;4.474;2023-07-31T09:38:08;19.59;83.32
73665;DHT22;61964;52.052;4.474;2023-07-31T09:40:37;19.59;83.16
73665;DHT22;61964;52.052;4.474;2023-07-31T09:43:07;19.60;83.43
73665;DHT22;61964;52.052;4.474;2023-07-31T09:45:37;19.62;83.69
73665;DHT22;61964;52.052;4.474;2023-07-31T09:48:07;19.65;83.45
73665;DHT22;61964;52.052;4.474;2023-07-31T09:50:37;19.67;83.33
73665;DHT22;61964;52.052;4.474;2023-07-31T09:53:05;19.63;83.10
73665;DHT22;61964;52.052;4.474;2023-07-31T09:55:31;19.56;83.34
73665;DHT22;61964;52.052;4.474;2023-07-31T09:58:07;19.53;83.12
73665;DHT22;61964;52.052;4.474;2023-07-31T10:00:33;19.48;83.74
73665;DHT22;61964;52.052;4.474;2023-07-31T10:03:02;19.53;83.93
73665;DHT22;61964;52.052;4.474;2023-07-31T10:05:39;19.58;83.44
73665;DHT22;61964;52.052;4.474;2023-07-31T10:08:09;19.63;83.48
73665;DHT22;61964;52.052;4.474;2023-07-31T10:10:42;19.65;83.49
73665;DHT22;61964;52.052;4.474;2023-07-31T10:13:09;19.66;83.59
73665;DHT22;61964;52.052;4.474;2023-07-31T10:15:36;19.70;82.90
73665;DHT22;61964;52.052;4.474;2023-07-31T10:18:02;19.63;83.16
73665;DHT22;61964;52.052;4.474;2023-07-31T10:20:31;19.67;83.59
73665;DHT22;61964;52.052;4.474;2023-07-31T10:22:58;19.73;83.36
73665;DHT22;61964;52.052;4.474;2023-07-31T10:25:26;19.76;83.25
73665;DHT22;61964;52.052;4.474;2023-07-31T10:27:53;19.83;83.05
73665;DHT22;61964;52.052;4.474;2023-07-31T10:30:27;19.89;82.90
73665;DHT22;61964;52.052;4.474;2023-07-31T10:32:56;19.86;82.36
73665;DHT22;61964;52.052;4.474;2023-07-31T10:35:22;19.91;82.51
73665;DHT22;61964;52.052;4.474;2023-07-31T10:37:48;19.91;82.50
73665;DHT22;61964;52.052;4.474;2023-07-31T10:40:19;19.90;82.15
73665;DHT22;61964;52.052;4.474;2023-07-31T10:42:56;19.82;82.08
73665;DHT22;61964;52.052;4.474;2023-07-31T10:45:36;19.83;82.84
73665;DHT22;61964;52.052;4.474;2023-07-31T10:48:04;19.82;82.00
73665;DHT22;61964;52.052;4.474;2023-07-31T10:50:32;19.80;82.75
73665;DHT22;61964;52.052;4.474;2023-07-31T10:53:02;19.80;82.57
73665;DHT22;61964;52.052;4.474;2023-07-31T10:55:47;19.77;82.63
73665;DHT22;61964;52.052;4.474;2023-07-31T10:58:19;19.83;83.01
73665;DHT22;61964;52.052;4.474;2023-07-31T11:00:45;19.83;82.47
73665;DHT22;61964;52.052;4.474;2023-07-31T11:03:14;19.83;82.30
73665;DHT22;61964;52.052;4.474;2023-07-31T11:06:01;19.76;82.56
73665;DHT22;61964;52.052;4.474;2023-07-31T11:08:41;19.79;82.90
73665;DHT22;61964;52.052;4.474;2023-07-31T11:11:16;19.82;82.56
73665;DHT22;61964;52.052;4.474;2023-07-31T11:13:45;19.79;82.73
73665;DHT22;61964;52.052;4.474;2023-07-31T11:16:14;19.84;83.29
73665;DHT22;61964;52.052;4.474;2023-07-31T11:18:44;19.93;83.23
73665;DHT22;61964;52.052;4.474;2023-07-31T11:21:19;20.04;82.37
73665;DHT22;61964;52.052;4.474;2023-07-31T11:23:47;20.09;82.44
73665;DHT22;61964;52.052;4.474;2023-07-31T11:26:14;20.14;82.15
73665;DHT22;61964;52.052;4.474;2023-07-31T11:28:40;20.14;81.90
73665;DHT22;61964;52.052;4.474;2023-07-31T11:31:11;20.11;81.96
73665;DHT22;61964;52.052;4.474;2023-07-31T11:33:37;20.01;81.87
73665;DHT22;61964;52.052;4.474;2023-07-31T11:36:03;20.06;81.82
73665;DHT22;61964;52.052;4.474;2023-07-31T11:38:33;20.06;81.68
73665;DHT22;61964;52.052;4.474;2023-07-31T11:41:03;20.03;81.83
73665;DHT22;61964;52.052;4.474;2023-07-31T11:43:31;20.09;82.37
73665;DHT22;61964;52.052;4.474;2023-07-31T11:46:01;20.10;82.07
73665;DHT22;61964;52.052;4.474;2023-07-31T11:48:37;20.09;81.67
73665;DHT22;61964;52.052;4.474;2023-07-31T11:51:05;20.10;81.50
73665;DHT22;61964;52.052;4.474;2023-07-31T11:53:53;20.06;81.37
73665;DHT22;61964;52.052;4.474;2023-07-31T11:56:21;20.07;81.94
73665;DHT22;61964;52.052;4.474;2023-07-31T11:58:58;20.06;81.70
73665;DHT22;61964;52.052;4.474;2023-07-31T12:01:27;20.06;82.00
73665;DHT22;61964;52.052;4.474;2023-07-31T12:03:56;20.07;81.47
73665;DHT22;61964;52.052;4.474;2023-07-31T12:06:36;20.10;82.13
73665;DHT22;61964;52.052;4.474;2023-07-31T12:09:03;20.10;81.40
73665;DHT22;61964;52.052;4.474;2023-07-31T12:11:29;20.09;81.64
73665;DHT22;61964;52.052;4.474;2023-07-31T12:13:55;20.06;82.23
73665;DHT22;61964;52.052;4.474;2023-07-31T12:16:20;20.09;82.53
73665;DHT22;61964;52.052;4.474;2023-07-31T12:18:49;20.11;81.97
73665;DHT22;61964;52.052;4.474;2023-07-31T12:21:15;20.18;81.80
73665;DHT22;61964;52.052;4.474;2023-07-31T12:23:41;20.20;81.84
73665;DHT22;61964;52.052;4.474;2023-07-31T12:26:15;20.22;82.04
73665;DHT22;61964;52.052;4.474;2023-07-31T12:28:46;20.24;81.94
73665;DHT22;61964;52.052;4.474;2023-07-31T12:31:13;20.24;81.20
73665;DHT22;61964;52.052;4.474;2023-07-31T12:33:41;20.25;81.74
73665;DHT22;61964;52.052;4.474;2023-07-31T12:36:18;20.38;81.67
73665;DHT22;61964;52.052;4.474;2023-07-31T12:38:45;20.48;81.44
73665;DHT22;61964;52.052;4.474;2023-07-31T12:41:11;20.52;81.39
73665;DHT22;61964;52.052;4.474;2023-07-31T12:43:39;20.59;80.29
73665;DHT22;61964;52.052;4.474;2023-07-31T12:46:07;20.58;79.93
73665;DHT22;61964;52.052;4.474;2023-07-31T12:48:37;20.54;80.76
73665;DHT22;61964;52.052;4.474;2023-07-31T12:51:03;20.42;80.78
73665;DHT22;61964;52.052;4.474;2023-07-31T12:53:29;20.37;81.56
73665;DHT22;61964;52.052;4.474;2023-07-31T12:55:56;20.44;81.61
73665;DHT22;61964;52.052;4.474;2023-07-31T12:58:22;20.52;82.06
73665;DHT22;61964;52.052;4.474;2023-07-31T13:00:48;20.49;81.44
73665;DHT22;61964;52.052;4.474;2023-07-31T13:03:14;20.49;81.84
73665;DHT22;61964;52.052;4.474;2023-07-31T13:05:39;20.40;82.32
73665;DHT22;61964;52.052;4.474;2023-07-31T13:08:05;20.44;82.44
73665;DHT22;61964;52.052;4.474;2023-07-31T13:10:31;20.38;82.20
73665;DHT22;61964;52.052;4.474;2023-07-31T13:12:56;20.34;82.43
73665;DHT22;61964;52.052;4.474;2023-07-31T13:15:22;20.28;82.07
73665;DHT22;61964;52.052;4.474;2023-07-31T13:17:48;20.27;82.88
73665;DHT22;61964;52.052;4.474;2023-07-31T13:20:14;20.21;82.83
73665;DHT22;61964;52.052;4.474;2023-07-31T13:22:40;20.24;82.84
73665;DHT22;61964;52.052;4.474;2023-07-31T13:25:06;20.25;82.92
73665;DHT22;61964;52.052;4.474;2023-07-31T13:27:32;20.22;83.02
73665;DHT22;61964;52.052;4.474;2023-07-31T13:29:58;20.20;83.31
73665;DHT22;61964;52.052;4.474;2023-07-31T13:32:24;20.24;83.29
73665;DHT22;61964;52.052;4.474;2023-07-31T13:34:51;20.35;83.38
73665;DHT22;61964;52.052;4.474;2023-07-31T13:37:16;20.37;83.06
73665;DHT22;61964;52.052;4.474;2023-07-31T13:39:44;20.32;82.48
73665;DHT22;61964;52.052;4.474;2023-07-31T13:42:09;20.24;82.48
73665;DHT22;61964;52.052;4.474;2023-07-31T13:44:38;20.22;82.66
73665;DHT22;61964;52.052;4.474;2023-07-31T13:47:04;20.21;82.77
73665;DHT22;61964;52.052;4.474;2023-07-31T13:49:30;20.17;82.86
73665;DHT22;61964;52.052;4.474;2023-07-31T13:52:00;20.20;83.15
73665;DHT22;61964;52.052;4.474;2023-07-31T13:54:25;20.13;82.31
73665;DHT22;61964;52.052;4.474;2023-07-31T13:56:52;20.14;83.10
73665;DHT22;61964;52.052;4.474;2023-07-31T13:59:18;20.14;82.86
73665;DHT22;61964;52.052;4.474;2023-07-31T14:01:44;20.04;83.05
73665;DHT22;61964;52.052;4.474;2023-07-31T14:04:10;20.04;83.40
73665;DHT22;61964;52.052;4.474;2023-07-31T14:06:36;20.10;83.61
73665;DHT22;61964;52.052;4.474;2023-07-31T14:09:02;20.11;83.21
73665;DHT22;61964;52.052;4.474;2023-07-31T14:11:28;20.14;83.20
73665;DHT22;61964;52.052;4.474;2023-07-31T14:13:54;20.14;83.02
73665;DHT22;61964;52.052;4.474;2023-07-31T14:16:21;20.11;83.17
73665;DHT22;61964;52.052;4.474;2023-07-31T14:18:47;20.11;83.27
73665;DHT22;61964;52.052;4.474;2023-07-31T14:21:13;20.17;83.28
73665;DHT22;61964;52.052;4.474;2023-07-31T14:23:39;20.16;83.23
73665;DHT22;61964;52.052;4.474;2023-07-31T14:26:05;20.20;83.08
73665;DHT22;61964;52.052;4.474;2023-07-31T14:28:31;20.17;82.97
73665;DHT22;61964;52.052;4.474;2023-07-31T14:30:57;20.10;83.07
73665;DHT22;61964;52.052;4.474;2023-07-31T14:33:23;20.04;83.32
73665;DHT22;61964;52.052;4.474;2023-07-31T14:35:49;19.97;83.45
73665;DHT22;61964;52.052;4.474;2023-07-31T14:38:14;19.94;83.69
73665;DHT22;61964;52.052;4.474;2023-07-31T14:40:41;19.96;83.60
73665;DHT22;61964;52.052;4.474;2023-07-31T14:43:06;19.94;83.88
73665;DHT22;61964;52.052;4.474;2023-07-31T14:45:32;20.01;84.09
73665;DHT22;61964;52.052;4.474;2023-07-31T14:47:58;20.04;83.82
73665;DHT22;61964;52.052;4.474;2023-07-31T14:50:24;20.07;83.89
73665;DHT22;61964;52.052;4.474;2023-07-31T14:52:50;20.10;83.67
73665;DHT22;61964;52.052;4.474;2023-07-31T14:55:18;20.11;83.47
73665;DHT22;61964;52.052;4.474;2023-07-31T14:57:43;20.09;83.62
73665;DHT22;61964;52.052;4.474;2023-07-31T15:00:10;20.07;83.29
73665;DHT22;61964;52.052;4.474;2023-07-31T15:02:39;20.09;83.81
73665;DHT22;61964;52.052;4.474;2023-07-31T15:05:05;20.04;83.61
73665;DHT22;61964;52.052;4.474;2023-07-31T15:07:32;20.03;83.77
73665;DHT22;61964;52.052;4.474;2023-07-31T15:09:58;19.94;83.67
73665;DHT22;61964;52.052;4.474;2023-07-31T15:12:26;19.91;84.09
73665;DHT22;61964;52.052;4.474;2023-07-31T15:14:52;19.93;84.03
73665;DHT22;61964;52.052;4.474;2023-07-31T15:17:18;19.86;83.99
73665;DHT22;61964;52.052;4.474;2023-07-31T15:19:44;19.82;83.81
73665;DHT22;61964;52.052;4.474;2023-07-31T15:22:10;19.74;84.23
73665;DHT22;61964;52.052;4.474;2023-07-31T15:24:36;19.72;84.27
73665;DHT22;61964;52.052;4.474;2023-07-31T15:27:01;19.72;84.48
73665;DHT22;61964;52.052;4.474;2023-07-31T15:29:29;19.77;84.64
73665;DHT22;61964;52.052;4.474;2023-07-31T15:31:55;19.79;84.31
73665;DHT22;61964;52.052;4.474;2023-07-31T15:34:22;19.77;84.40